createdAt,value
2019-04-03T00:01:19.128Z,19.37
2019-04-03T00:03:50.371Z,19.57
2019-04-03T00:06:21.591Z,21.02
2019-04-03T00:08:52.979Z,21.12
2019-04-03T00:11:24.405Z,19.35
2019-04-03T00:13:55.683Z,18.17
2019-04-03T00:16:26.989Z,17.70
2019-04-03T00:18:58.207Z,15.60
2019-04-03T00:21:29.446Z,16.60
2019-04-03T00:24:00.665Z,16.82
2019-04-03T00:26:31.924Z,15.83
2019-04-03T00:29:03.236Z,16.95
2019-04-03T00:31:34.520Z,16.67
2019-04-03T00:34:05.864Z,16.00
2019-04-03T00:36:38.262Z,16.15
2019-04-03T00:39:09.620Z,16.10
2019-04-03T00:41:40.913Z,18.32
2019-04-03T00:44:12.321Z,17.25
2019-04-03T00:46:43.628Z,16.97
2019-04-03T00:49:15.081Z,16.73
2019-04-03T00:51:46.447Z,17.35
2019-04-03T00:54:17.743Z,17.05
2019-04-03T00:56:49.127Z,16.77
2019-04-03T00:59:20.392Z,18.55
2019-04-03T01:01:51.675Z,17.70
2019-04-03T01:04:22.999Z,17.85
2019-04-03T01:06:54.240Z,17.67
2019-04-03T01:09:25.733Z,18.87
2019-04-03T01:11:56.940Z,18.30
2019-04-03T01:14:28.165Z,17.60
2019-04-03T01:16:59.491Z,17.90
2019-04-03T01:19:30.761Z,19.15
2019-04-03T01:22:02.036Z,17.77
2019-04-03T01:24:33.366Z,17.52
2019-04-03T01:27:04.909Z,16.40
2019-04-03T01:29:36.195Z,14.87
2019-04-03T01:32:07.423Z,15.68
2019-04-03T01:34:38.704Z,16.10
2019-04-03T01:37:10.084Z,15.30
2019-04-03T01:39:41.389Z,14.43
2019-04-03T01:42:12.612Z,14.45
2019-04-03T01:44:43.760Z,14.00
2019-04-03T01:47:14.997Z,15.15
2019-04-03T01:49:46.179Z,15.05
2019-04-03T01:52:17.346Z,15.15
2019-04-03T01:54:48.549Z,14.13
2019-04-03T01:57:19.794Z,14.28
2019-04-03T01:59:51.038Z,14.65
2019-04-03T02:02:22.231Z,15.65
2019-04-03T02:04:53.463Z,14.30
2019-04-03T02:07:24.695Z,15.03
2019-04-03T02:09:55.893Z,14.60
2019-04-03T02:12:27.168Z,14.80
2019-04-03T02:14:59.338Z,13.68
2019-04-03T02:17:30.588Z,14.28
2019-04-03T02:20:01.764Z,15.30
2019-04-03T02:22:33.331Z,14.10
2019-04-03T02:25:04.800Z,14.90
2019-04-03T02:27:35.965Z,14.53
2019-04-03T02:30:12.140Z,15.75
2019-04-03T02:32:41.000Z,15.13
2019-04-03T02:35:12.197Z,15.28
2019-04-03T02:37:44.080Z,15.38
2019-04-03T02:40:16.300Z,15.05
2019-04-03T02:42:47.907Z,15.75
2019-04-03T02:45:22.752Z,15.58
2019-04-03T02:47:52.362Z,15.05
2019-04-03T02:50:26.900Z,15.43
2019-04-03T02:52:59.094Z,15.48
2019-04-03T02:55:30.729Z,16.02
2019-04-03T02:58:02.001Z,16.55
2019-04-03T03:00:33.911Z,14.87
2019-04-03T03:03:05.201Z,15.23
2019-04-03T03:05:36.614Z,16.20
2019-04-03T03:08:09.438Z,15.45
2019-04-03T03:10:41.183Z,14.63
2019-04-03T03:13:12.731Z,15.68
2019-04-03T03:15:45.071Z,15.90
2019-04-03T03:18:16.942Z,15.83
2019-04-03T03:20:48.708Z,15.60
2019-04-03T03:23:23.355Z,16.02
2019-04-03T03:25:53.453Z,15.28
2019-04-03T03:28:24.870Z,16.52
2019-04-03T03:31:02.629Z,15.55
2019-04-03T03:33:35.823Z,15.58
2019-04-03T03:36:02.885Z,15.65
2019-04-03T03:38:38.291Z,14.68
2019-04-03T03:41:07.813Z,15.08
2019-04-03T03:43:39.152Z,15.65
2019-04-03T03:46:11.539Z,15.30
2019-04-03T03:48:44.809Z,14.70
2019-04-03T03:51:16.430Z,15.00
2019-04-03T03:53:48.575Z,15.83
2019-04-03T03:56:20.534Z,15.95
2019-04-03T03:58:52.167Z,16.25
2019-04-03T04:01:23.487Z,14.93
2019-04-03T04:03:54.721Z,14.95
2019-04-03T04:06:29.356Z,15.20
2019-04-03T04:08:58.986Z,15.65
2019-04-03T04:11:31.244Z,14.80
2019-04-03T04:14:03.233Z,14.65
2019-04-03T04:16:37.265Z,15.75
2019-04-03T04:19:10.073Z,15.20
2019-04-03T04:21:44.284Z,15.68
2019-04-03T04:24:14.594Z,15.90
2019-04-03T04:26:45.842Z,14.90
2019-04-03T04:29:18.370Z,15.72
2019-04-03T04:31:49.553Z,15.48
2019-04-03T04:34:20.767Z,15.23
2019-04-03T04:36:54.771Z,14.68
2019-04-03T04:39:25.038Z,15.15
2019-04-03T04:41:56.232Z,14.93
2019-04-03T04:44:27.530Z,15.53
2019-04-03T04:46:58.825Z,15.83
2019-04-03T04:49:30.013Z,15.48
2019-04-03T04:52:01.391Z,14.47
2019-04-03T04:54:32.758Z,16.50
2019-04-03T04:57:04.194Z,15.00
2019-04-03T04:59:36.689Z,15.72
2019-04-03T05:02:08.363Z,15.15
2019-04-03T05:04:39.647Z,16.50
2019-04-03T05:07:10.880Z,14.95
2019-04-03T05:09:42.301Z,16.07
2019-04-03T05:12:13.779Z,15.55
2019-04-03T05:14:45.085Z,16.12
2019-04-03T05:17:16.381Z,14.90
2019-04-03T05:19:48.953Z,15.60
2019-04-03T05:22:23.198Z,14.80
2019-04-03T05:24:53.554Z,16.42
2019-04-03T05:27:24.718Z,15.75
2019-04-03T05:29:55.948Z,15.20
2019-04-03T05:32:27.115Z,15.25
2019-04-03T05:34:58.347Z,15.63
2019-04-03T05:37:29.621Z,15.28
2019-04-03T05:40:00.820Z,15.30
2019-04-03T05:42:31.985Z,15.68
2019-04-03T05:45:04.545Z,15.43
2019-04-03T05:47:39.290Z,16.52
2019-04-03T05:50:10.248Z,16.12
2019-04-03T05:52:41.561Z,15.30
2019-04-03T05:55:12.768Z,15.13
2019-04-03T05:57:45.894Z,15.48
2019-04-03T06:00:26.925Z,16.85
2019-04-03T06:02:58.248Z,16.48
2019-04-03T06:05:29.503Z,15.93
2019-04-03T06:08:00.753Z,16.48
2019-04-03T06:10:34.127Z,15.05
2019-04-03T06:13:06.098Z,14.95
2019-04-03T06:15:37.589Z,15.90
2019-04-03T06:18:08.909Z,16.70
2019-04-03T06:20:42.556Z,16.27
2019-04-03T06:23:13.188Z,17.48
2019-04-03T06:25:44.556Z,16.42
2019-04-03T06:28:16.142Z,15.08
2019-04-03T06:30:47.410Z,15.53
2019-04-03T06:33:18.675Z,16.77
2019-04-03T06:35:50.100Z,16.93
2019-04-03T06:38:23.976Z,16.25
2019-04-03T06:40:54.357Z,16.50
2019-04-03T06:43:25.627Z,16.15
2019-04-03T06:45:57.617Z,15.88
2019-04-03T06:48:29.727Z,17.05
2019-04-03T06:51:00.917Z,15.50
2019-04-03T06:53:32.234Z,17.25
2019-04-03T06:56:03.488Z,16.35
2019-04-03T06:58:38.655Z,17.62
2019-04-03T07:01:07.968Z,17.15
2019-04-03T07:03:39.250Z,16.25
2019-04-03T07:06:11.534Z,17.37
2019-04-03T07:08:43.400Z,16.35
2019-04-03T07:11:23.388Z,17.87
2019-04-03T07:13:47.591Z,17.73
2019-04-03T07:16:18.840Z,18.25
2019-04-03T07:18:50.147Z,17.30
2019-04-03T07:21:22.733Z,19.50
2019-04-03T07:23:54.464Z,17.00
2019-04-03T07:26:25.653Z,16.97
2019-04-03T07:28:57.011Z,17.90
2019-04-03T07:31:28.507Z,18.52
2019-04-03T07:34:01.879Z,17.85
2019-04-03T07:36:32.660Z,17.55
2019-04-03T07:39:05.448Z,17.23
2019-04-03T07:41:36.919Z,17.75
2019-04-03T07:44:08.133Z,18.75
2019-04-03T07:46:39.325Z,16.67
2019-04-03T07:49:10.567Z,18.92
2019-04-03T07:51:43.237Z,19.37
2019-04-03T07:54:14.891Z,17.60
2019-04-03T07:56:46.082Z,17.65
2019-04-03T07:59:17.285Z,18.80
2019-04-03T08:01:48.536Z,18.50
2019-04-03T08:04:21.973Z,18.17
2019-04-03T08:06:53.814Z,18.95
2019-04-03T08:09:25.019Z,17.67
2019-04-03T08:11:56.210Z,18.20
2019-04-03T08:14:27.411Z,18.50
2019-04-03T08:16:58.576Z,20.20
2019-04-03T08:19:29.934Z,18.67
2019-04-03T08:22:02.524Z,18.17
2019-04-03T08:24:33.836Z,18.55
2019-04-03T08:27:07.876Z,19.57
2019-04-03T08:29:38.701Z,19.73
2019-04-03T08:32:10.609Z,18.62
2019-04-03T08:34:41.891Z,18.15
2019-04-03T08:37:13.096Z,17.73
2019-04-03T08:39:44.319Z,19.48
2019-04-03T08:42:15.452Z,19.48
2019-04-03T08:44:46.785Z,18.90
2019-04-03T08:47:17.890Z,19.17
2019-04-03T08:49:50.208Z,18.42
2019-04-03T08:52:21.347Z,19.57
2019-04-03T08:54:52.644Z,19.27
2019-04-03T08:57:23.822Z,19.80
2019-04-03T08:59:54.982Z,19.82
2019-04-03T09:02:26.285Z,19.35
2019-04-03T09:04:57.682Z,19.92
2019-04-03T09:07:28.880Z,20.35
2019-04-03T09:10:00.920Z,20.08
2019-04-03T09:12:32.678Z,19.67
2019-04-03T09:15:04.203Z,19.73
2019-04-03T09:17:35.501Z,21.17
2019-04-03T09:20:08.037Z,20.80
2019-04-03T09:22:39.238Z,21.48
2019-04-03T09:25:13.247Z,21.80
2019-04-03T09:27:43.706Z,20.97
2019-04-03T09:30:16.197Z,21.77
2019-04-03T09:32:48.176Z,21.82
2019-04-03T09:35:19.705Z,21.97
2019-04-03T09:37:51.046Z,21.87
2019-04-03T09:40:22.524Z,22.07
2019-04-03T09:42:54.886Z,20.62
2019-04-03T09:45:28.152Z,20.70
2019-04-03T09:47:59.238Z,21.52
2019-04-03T09:50:30.583Z,19.85
2019-04-03T09:53:02.813Z,18.50
2019-04-03T09:55:37.283Z,18.35
2019-04-03T09:58:07.060Z,19.20
2019-04-03T10:00:39.696Z,17.75
2019-04-03T10:03:11.241Z,19.82
2019-04-03T10:05:42.487Z,17.07
2019-04-03T10:08:13.733Z,16.65
2019-04-03T10:10:46.968Z,17.37
2019-04-03T10:13:18.218Z,16.25
2019-04-03T10:15:49.310Z,16.27
2019-04-03T10:18:22.148Z,15.23
2019-04-03T10:20:53.806Z,15.60
2019-04-03T10:23:26.586Z,14.95
2019-04-03T10:25:59.103Z,15.18
2019-04-03T10:28:30.327Z,14.93
2019-04-03T10:31:01.553Z,15.18
2019-04-03T10:33:32.734Z,16.10
2019-04-03T10:36:03.925Z,15.48
2019-04-03T10:38:36.204Z,16.30
2019-04-03T10:41:07.389Z,17.10
2019-04-03T10:43:38.716Z,16.07
2019-04-03T10:46:09.926Z,15.55
2019-04-03T10:48:41.347Z,13.55
2019-04-03T10:51:12.904Z,14.03
2019-04-03T10:53:44.259Z,13.62
2019-04-03T10:56:15.510Z,14.43
2019-04-03T10:58:49.483Z,13.25
2019-04-03T11:01:19.669Z,11.60
2019-04-03T11:03:50.904Z,11.63
2019-04-03T11:06:22.372Z,12.80
2019-04-03T11:08:53.602Z,13.13
2019-04-03T11:11:24.855Z,11.63
2019-04-03T11:13:56.055Z,12.15
2019-04-03T11:16:27.367Z,11.53
2019-04-03T11:19:03.653Z,11.55
2019-04-03T11:21:32.207Z,11.12
2019-04-03T11:24:05.895Z,11.38
2019-04-03T11:26:36.426Z,10.95
2019-04-03T11:29:10.149Z,10.72
2019-04-03T11:31:42.260Z,10.55
2019-04-03T11:34:16.724Z,10.08
2019-04-03T11:36:46.624Z,10.53
2019-04-03T11:39:17.896Z,11.93
2019-04-03T11:41:49.155Z,10.70
2019-04-03T11:44:20.343Z,9.03
2019-04-03T11:46:51.511Z,9.75
2019-04-03T11:49:22.738Z,10.05
2019-04-03T11:51:54.128Z,9.78
2019-04-03T11:54:25.377Z,10.50
2019-04-03T11:56:57.198Z,9.40
2019-04-03T11:59:28.778Z,10.63
2019-04-03T12:01:59.931Z,10.08
2019-04-03T12:04:31.296Z,10.40
2019-04-03T12:07:02.475Z,11.15
2019-04-03T12:09:33.828Z,11.40
2019-04-03T12:12:05.528Z,11.73
2019-04-03T12:14:37.003Z,12.15
2019-04-03T12:17:08.331Z,12.18
2019-04-03T12:19:40.487Z,12.28
2019-04-03T12:22:12.062Z,12.73
2019-04-03T12:24:43.398Z,12.68
2019-04-03T12:27:14.829Z,11.83
2019-04-03T12:29:46.441Z,11.03
2019-04-03T12:32:17.651Z,11.55
2019-04-03T12:34:48.899Z,11.78
2019-04-03T12:37:20.582Z,12.18
2019-04-03T12:39:52.137Z,10.63
2019-04-03T12:42:23.430Z,11.97
2019-04-03T12:44:55.687Z,12.53
2019-04-03T12:47:28.342Z,11.80
2019-04-03T12:49:59.858Z,12.05
2019-04-03T12:52:31.253Z,11.78
2019-04-03T12:55:02.851Z,11.65
2019-04-03T12:57:34.465Z,10.90
2019-04-03T13:00:10.603Z,14.53
2019-04-03T13:02:40.620Z,12.45
2019-04-03T13:05:12.205Z,13.70
2019-04-03T13:07:45.929Z,13.58
2019-04-03T13:10:16.967Z,14.30
2019-04-03T13:12:49.277Z,13.20
2019-04-03T13:15:20.572Z,12.68
2019-04-03T13:17:52.198Z,13.60
2019-04-03T13:20:23.589Z,13.35
2019-04-03T13:22:55.131Z,12.88
2019-04-03T13:25:27.064Z,12.90
2019-04-03T13:27:58.537Z,12.58
2019-04-03T13:30:30.000Z,12.75
2019-04-03T13:33:05.395Z,12.20
2019-04-03T13:35:34.419Z,12.10
2019-04-03T13:38:06.126Z,11.50
2019-04-03T13:40:38.959Z,10.48
2019-04-03T13:43:10.703Z,11.57
2019-04-03T13:45:42.047Z,9.60
2019-04-03T13:48:13.895Z,7.45
2019-04-03T13:50:47.893Z,9.33
2019-04-03T13:53:20.444Z,8.38
2019-04-03T13:55:51.509Z,8.80
2019-04-03T13:58:22.713Z,9.40
2019-04-03T14:01:00.798Z,9.73
2019-04-03T14:03:27.981Z,9.40
2019-04-03T14:05:59.318Z,9.25
2019-04-03T14:08:30.872Z,9.53
2019-04-03T14:11:02.594Z,10.05
2019-04-03T14:13:33.889Z,9.38
2019-04-03T14:16:18.144Z,9.50
2019-04-03T14:18:40.255Z,9.78
2019-04-03T14:21:11.781Z,9.65
2019-04-03T14:23:43.067Z,10.32
2019-04-03T14:26:14.740Z,10.85
2019-04-03T14:28:46.424Z,9.88
2019-04-03T14:31:18.569Z,9.68
2019-04-03T14:33:50.739Z,10.80
2019-04-03T14:36:21.952Z,10.90
2019-04-03T14:38:53.151Z,11.97
2019-04-03T14:41:24.319Z,10.95
2019-04-03T14:43:56.625Z,10.95
2019-04-03T14:46:28.132Z,10.48
2019-04-03T14:49:01.311Z,10.95
2019-04-03T14:51:32.577Z,10.88
2019-04-03T14:54:03.830Z,10.28
2019-04-03T14:56:35.010Z,10.23
2019-04-03T14:59:06.210Z,10.82
2019-04-03T15:01:37.455Z,9.85
2019-04-03T15:04:10.262Z,10.70
2019-04-03T15:06:41.455Z,11.08
2019-04-03T15:09:14.219Z,10.95
2019-04-03T15:11:46.006Z,11.65
2019-04-03T15:14:17.575Z,11.45
2019-04-03T15:16:49.016Z,10.70
2019-04-03T15:19:20.490Z,10.85
2019-04-03T15:21:52.329Z,10.72
2019-04-03T15:24:23.598Z,10.78
2019-04-03T15:26:55.112Z,10.95
2019-04-03T15:29:26.377Z,10.53
2019-04-03T15:31:57.561Z,10.58
2019-04-03T15:34:29.466Z,10.98
2019-04-03T15:37:00.781Z,10.45
2019-04-03T15:39:33.235Z,10.53
2019-04-03T15:42:06.683Z,9.60
2019-04-03T15:44:37.804Z,9.83
2019-04-03T15:47:10.331Z,8.75
2019-04-03T15:49:41.993Z,9.30
2019-04-03T15:52:13.835Z,10.68
2019-04-03T15:54:45.313Z,9.98
2019-04-03T15:57:18.768Z,10.68
2019-04-03T15:59:52.004Z,10.35
2019-04-03T16:02:22.689Z,11.22
2019-04-03T16:04:54.118Z,11.10
2019-04-03T16:07:25.345Z,11.60
2019-04-03T16:09:56.936Z,11.33
2019-04-03T16:12:28.245Z,11.43
2019-04-03T16:14:59.591Z,12.13
2019-04-03T16:17:33.514Z,11.90
2019-04-03T16:20:04.523Z,20.92
2019-04-03T16:22:35.882Z,14.63
2019-04-03T16:25:08.055Z,11.90
2019-04-03T16:27:39.384Z,12.70
2019-04-03T16:30:14.183Z,12.47
2019-04-03T16:32:43.711Z,12.45
2019-04-03T16:35:15.362Z,12.10
2019-04-03T16:37:46.536Z,18.10
2019-04-03T16:40:19.156Z,16.93
2019-04-03T16:42:53.023Z,12.43
2019-04-03T16:45:23.459Z,12.15
2019-04-03T16:47:55.206Z,11.78
2019-04-03T16:50:27.910Z,12.30
2019-04-03T16:52:59.558Z,11.88
2019-04-03T16:55:30.861Z,13.68
2019-04-03T16:58:02.047Z,15.08
2019-04-03T17:00:33.587Z,16.12
2019-04-03T17:03:04.880Z,14.28
2019-04-03T17:05:36.237Z,13.45
2019-04-03T17:08:07.765Z,12.40
2019-04-03T17:10:40.687Z,12.45
2019-04-03T17:13:12.323Z,12.18
2019-04-03T17:15:43.609Z,12.50
2019-04-03T17:18:17.153Z,12.55
2019-04-03T17:20:50.373Z,12.13
2019-04-03T17:23:21.109Z,13.62
2019-04-03T17:25:52.660Z,15.88
2019-04-03T17:28:26.274Z,11.83
2019-04-03T17:30:56.855Z,12.15
2019-04-03T17:33:28.110Z,11.97
2019-04-03T17:35:59.655Z,12.80
2019-04-03T17:38:32.683Z,13.10
2019-04-03T17:41:05.075Z,12.53
2019-04-03T17:43:36.857Z,12.40
2019-04-03T17:46:08.117Z,12.98
2019-04-03T17:48:39.294Z,12.90
2019-04-03T17:51:10.488Z,12.47
2019-04-03T17:53:41.715Z,13.00
2019-04-03T17:56:13.090Z,13.55
2019-04-03T17:58:46.047Z,12.90
2019-04-03T18:01:18.812Z,13.72
2019-04-03T18:03:50.170Z,12.20
2019-04-03T18:06:21.355Z,27.85
2019-04-03T18:08:52.727Z,20.27
2019-04-03T18:11:24.111Z,13.80
2019-04-03T18:13:55.640Z,12.50
2019-04-03T18:16:29.504Z,12.88
2019-04-03T18:18:59.790Z,14.05
2019-04-03T18:21:30.956Z,12.93
2019-04-03T18:24:02.254Z,13.10
2019-04-03T18:26:33.457Z,13.48
2019-04-03T18:29:06.731Z,14.23
2019-04-03T18:31:38.055Z,14.53
2019-04-03T18:34:09.363Z,14.05
2019-04-03T18:36:40.587Z,15.13
2019-04-03T18:39:12.282Z,13.95
2019-04-03T18:41:43.573Z,14.68
2019-04-03T18:44:21.931Z,15.58
2019-04-03T18:46:50.181Z,15.00
2019-04-03T18:49:20.903Z,15.28
2019-04-03T18:51:52.090Z,16.17
2019-04-03T18:54:23.443Z,15.75
2019-04-03T18:56:54.790Z,16.17
2019-04-03T18:59:26.473Z,16.23
2019-04-03T19:01:57.871Z,63.55
2019-04-03T19:04:29.139Z,21.55
2019-04-03T19:07:01.342Z,16.37
2019-04-03T19:09:32.669Z,18.17
2019-04-03T19:12:08.655Z,17.12
2019-04-03T19:14:40.182Z,17.05
2019-04-03T19:17:12.066Z,17.10
2019-04-03T19:19:43.344Z,50.35
2019-04-03T19:22:14.557Z,20.32
2019-04-03T19:24:45.797Z,17.35
2019-04-03T19:27:16.989Z,17.55
2019-04-03T19:29:48.275Z,16.55
2019-04-03T19:32:25.907Z,17.37
2019-04-03T19:35:08.861Z,16.70
2019-04-03T19:37:40.694Z,15.90
2019-04-03T19:40:12.926Z,16.87
2019-04-03T19:42:44.448Z,15.95
2019-04-03T19:45:15.869Z,17.48
2019-04-03T19:47:47.221Z,16.77
2019-04-03T19:50:18.486Z,17.98
2019-04-03T19:52:49.694Z,18.32
2019-04-03T19:55:23.347Z,31.73
2019-04-03T19:57:54.173Z,21.45
2019-04-03T20:00:25.480Z,17.77
2019-04-03T20:02:56.804Z,18.23
2019-04-03T20:05:33.274Z,17.37
2019-04-03T20:08:07.447Z,17.52
2019-04-03T20:10:38.881Z,17.02
2019-04-03T20:13:10.194Z,17.37
2019-04-03T20:15:41.551Z,18.50
2019-04-03T20:18:12.742Z,17.95
2019-04-03T20:20:44.340Z,18.10
2019-04-03T20:23:35.345Z,18.20
2019-04-03T20:26:06.693Z,20.55
2019-04-03T20:28:38.234Z,19.25
2019-04-03T20:31:09.552Z,19.02
2019-04-03T20:33:42.365Z,18.75
2019-04-03T20:36:16.552Z,19.12
2019-04-03T20:38:46.767Z,18.60
2019-04-03T20:41:18.084Z,18.25
2019-04-03T20:43:49.459Z,20.85
2019-04-03T20:46:22.041Z,18.07
2019-04-03T20:48:53.690Z,19.35
2019-04-03T20:51:24.998Z,19.67
2019-04-03T20:53:56.150Z,19.32
2019-04-03T20:59:58.790Z,18.82
2019-04-03T21:02:41.196Z,19.30
2019-04-03T21:05:29.394Z,18.25
2019-04-03T21:08:00.800Z,19.92
2019-04-03T21:11:10.693Z,20.52
2019-04-03T21:13:52.154Z,20.17
2019-04-03T21:16:50.417Z,20.08
2019-04-03T21:19:23.546Z,21.10
2019-04-03T21:21:55.105Z,21.95
2019-04-03T21:24:26.936Z,20.52
2019-04-03T21:26:58.215Z,22.32
2019-04-03T21:29:29.981Z,22.48
2019-04-03T21:32:01.387Z,21.30
2019-04-03T21:34:34.499Z,21.10
2019-04-03T21:37:07.662Z,22.02
2019-04-03T21:39:40.152Z,21.95
2019-04-03T21:42:11.654Z,20.57
2019-04-03T21:44:43.000Z,20.35
2019-04-03T21:47:14.289Z,21.12
2019-04-03T21:49:47.590Z,22.58
2019-04-03T21:52:20.924Z,22.17
2019-04-03T21:54:52.393Z,22.27
2019-04-03T21:57:23.733Z,21.35
2019-04-03T21:59:54.935Z,22.82
2019-04-03T22:02:26.383Z,21.87
2019-04-03T22:04:57.511Z,21.52
2019-04-03T22:07:29.042Z,22.32
2019-04-03T22:10:01.878Z,22.02
2019-04-03T22:12:33.177Z,22.45
2019-04-03T22:15:04.776Z,21.93
2019-04-03T22:17:36.292Z,21.93
2019-04-03T22:20:07.624Z,22.22
2019-04-03T22:22:39.055Z,21.55
2019-04-03T22:25:10.509Z,21.68
2019-04-03T22:27:42.769Z,21.82
2019-04-03T22:30:14.669Z,22.05
2019-04-03T22:32:46.273Z,21.17
2019-04-03T22:35:18.711Z,21.55
2019-04-03T22:37:49.933Z,20.57
2019-04-03T22:40:21.107Z,23.50
2019-04-03T22:42:52.328Z,23.00
2019-04-03T22:45:23.602Z,22.77
2019-04-03T22:47:56.337Z,22.98
2019-04-03T22:50:28.144Z,22.85
2019-04-03T22:52:59.464Z,23.45
2019-04-03T22:55:31.622Z,22.65
2019-04-03T22:58:02.924Z,21.65
2019-04-03T23:00:34.215Z,23.12
2019-04-03T23:03:06.912Z,23.02
2019-04-03T23:05:38.286Z,22.58
2019-04-03T23:08:09.586Z,23.90
2019-04-03T23:10:40.930Z,22.93
2019-04-03T23:13:12.223Z,23.05
2019-04-03T23:15:43.693Z,22.15
2019-04-03T23:18:15.984Z,23.15
2019-04-03T23:20:47.960Z,22.52
2019-04-03T23:23:19.542Z,23.02
2019-04-03T23:25:50.981Z,24.07
2019-04-03T23:28:22.309Z,23.60
2019-04-03T23:30:53.677Z,23.40
2019-04-03T23:33:26.009Z,25.12
2019-04-03T23:35:57.494Z,24.25
2019-04-03T23:38:28.903Z,24.35
2019-04-03T23:41:00.334Z,24.40
2019-04-03T23:43:31.600Z,25.65
2019-04-03T23:46:03.062Z,23.65
2019-04-03T23:48:34.530Z,24.05
2019-04-03T23:51:06.052Z,23.00
2019-04-03T23:53:37.396Z,24.23
2019-04-03T23:56:09.869Z,22.95
2019-04-03T23:58:41.859Z,23.27
